sensor_id;sensor_type;location;lat;lon;timestamp;pressure;altitude;pressure_sealevel;temperature;humidity
6851;BME280;3464;42.728;23.296;2023-08-21T00:02:07;95557.63;;;32.40;37.55
6851;BME280;3464;42.728;23.296;2023-08-21T00:04:33;95554.11;;;32.47;37.59
6851;BME280;3464;42.728;23.296;2023-08-21T00:07:03;95558.70;;;32.43;37.61
6851;BME280;3464;42.728;23.296;2023-08-21T00:09:33;95559.16;;;32.43;37.61
6851;BME280;3464;42.728;23.296;2023-08-21T00:12:00;95562.27;;;32.42;37.61
6851;BME280;3464;42.728;23.296;2023-08-21T00:14:30;95556.85;;;32.51;37.60
6851;BME280;3464;42.728;23.296;2023-08-21T00:16:58;95561.77;;;32.43;37.89
6851;BME280;3464;42.728;23.296;2023-08-21T00:19:25;95555.42;;;32.47;37.80
6851;BME280;3464;42.728;23.296;2023-08-21T00:21:56;95556.25;;;32.41;37.94
6851;BME280;3464;42.728;23.296;2023-08-21T00:24:24;95557.63;;;32.40;38.00
6851;BME280;3464;42.728;23.296;2023-08-21T00:26:54;95552.30;;;32.29;38.27
6851;BME280;3464;42.728;23.296;2023-08-21T00:29:23;95552.77;;;32.23;38.46
6851;BME280;3464;42.728;23.296;2023-08-21T00:31:49;95550.87;;;32.38;38.16
6851;BME280;3464;42.728;23.296;2023-08-21T00:34:17;95558.00;;;32.29;38.56
6851;BME280;3464;42.728;23.296;2023-08-21T00:37:08;95564.42;;;32.36;38.31
6851;BME280;3464;42.728;23.296;2023-08-21T00:39:35;95557.27;;;32.27;38.65
6851;BME280;3464;42.728;23.296;2023-08-21T00:42:05;95554.42;;;32.24;38.64
6851;BME280;3464;42.728;23.296;2023-08-21T00:44:35;95562.12;;;32.32;38.50
6851;BME280;3464;42.728;23.296;2023-08-21T00:47:06;95566.23;;;32.36;38.47
6851;BME280;3464;42.728;23.296;2023-08-21T00:49:36;95562.32;;;32.35;38.38
6851;BME280;3464;42.728;23.296;2023-08-21T00:52:05;95560.63;;;32.47;38.31
6851;BME280;3464;42.728;23.296;2023-08-21T00:54:36;95562.62;;;32.31;38.62
6851;BME280;3464;42.728;23.296;2023-08-21T00:57:05;95557.34;;;32.26;38.70
6851;BME280;3464;42.728;23.296;2023-08-21T00:59:34;95564.03;;;32.29;38.61
6851;BME280;3464;42.728;23.296;2023-08-21T01:02:01;95565.45;;;32.34;38.41
6851;BME280;3464;42.728;23.296;2023-08-21T01:04:28;95570.27;;;32.27;38.73
6851;BME280;3464;42.728;23.296;2023-08-21T01:06:56;95567.55;;;32.29;38.82
6851;BME280;3464;42.728;23.296;2023-08-21T01:09:31;95562.06;;;32.26;38.84
6851;BME280;3464;42.728;23.296;2023-08-21T01:12:06;95565.16;;;32.08;39.34
6851;BME280;3464;42.728;23.296;2023-08-21T01:14:49;95565.90;;;32.04;39.40
6851;BME280;3464;42.728;23.296;2023-08-21T01:17:14;95568.16;;;32.03;39.34
6851;BME280;3464;42.728;23.296;2023-08-21T01:19:43;95566.14;;;32.06;39.41
6851;BME280;3464;42.728;23.296;2023-08-21T01:22:15;95563.05;;;32.01;39.51
6851;BME280;3464;42.728;23.296;2023-08-21T01:24:44;95574.08;;;31.87;39.86
6851;BME280;3464;42.728;23.296;2023-08-21T01:27:16;95572.20;;;31.94;39.76
6851;BME280;3464;42.728;23.296;2023-08-21T01:29:44;95576.75;;;31.91;39.77
6851;BME280;3464;42.728;23.296;2023-08-21T01:32:21;95572.98;;;31.84;39.83
6851;BME280;3464;42.728;23.296;2023-08-21T01:34:49;95576.47;;;31.64;40.04
6851;BME280;3464;42.728;23.296;2023-08-21T01:37:19;95579.67;;;31.62;40.08
6851;BME280;3464;42.728;23.296;2023-08-21T01:39:48;95580.07;;;31.44;40.19
6851;BME280;3464;42.728;23.296;2023-08-21T01:42:19;95582.67;;;31.44;40.23
6851;BME280;3464;42.728;23.296;2023-08-21T01:44:49;95583.51;;;31.38;40.22
6851;BME280;3464;42.728;23.296;2023-08-21T01:47:16;95576.38;;;31.41;40.25
6851;BME280;3464;42.728;23.296;2023-08-21T01:49:44;95579.05;;;31.46;40.04
6851;BME280;3464;42.728;23.296;2023-08-21T01:52:11;95562.47;;;31.29;40.26
6851;BME280;3464;42.728;23.296;2023-08-21T01:54:38;95568.71;;;31.45;40.16
6851;BME280;3464;42.728;23.296;2023-08-21T01:57:05;95571.09;;;31.35;40.28
6851;BME280;3464;42.728;23.296;2023-08-21T01:59:31;95572.25;;;31.18;40.61
6851;BME280;3464;42.728;23.296;2023-08-21T02:01:59;95570.55;;;31.24;40.49
6851;BME280;3464;42.728;23.296;2023-08-21T02:04:26;95571.07;;;31.23;40.59
6851;BME280;3464;42.728;23.296;2023-08-21T02:06:53;95564.87;;;31.18;40.69
6851;BME280;3464;42.728;23.296;2023-08-21T02:09:23;95577.63;;;31.16;40.79
6851;BME280;3464;42.728;23.296;2023-08-21T02:11:51;95582.89;;;31.02;40.95
6851;BME280;3464;42.728;23.296;2023-08-21T02:14:18;95571.43;;;30.79;41.36
6851;BME280;3464;42.728;23.296;2023-08-21T02:16:45;95577.19;;;30.77;41.46
6851;BME280;3464;42.728;23.296;2023-08-21T02:19:13;95577.86;;;30.80;41.41
6851;BME280;3464;42.728;23.296;2023-08-21T02:21:40;95576.41;;;30.69;41.60
6851;BME280;3464;42.728;23.296;2023-08-21T02:24:07;95569.86;;;30.83;41.38
6851;BME280;3464;42.728;23.296;2023-08-21T02:26:35;95578.73;;;30.87;41.36
6851;BME280;3464;42.728;23.296;2023-08-21T02:29:04;95575.28;;;30.86;41.23
6851;BME280;3464;42.728;23.296;2023-08-21T02:31:32;95569.03;;;30.76;41.47
6851;BME280;3464;42.728;23.296;2023-08-21T02:34:05;95562.41;;;30.91;41.35
6851;BME280;3464;42.728;23.296;2023-08-21T02:36:31;95563.30;;;30.78;41.49
6851;BME280;3464;42.728;23.296;2023-08-21T02:38:59;95568.23;;;30.62;41.66
6851;BME280;3464;42.728;23.296;2023-08-21T02:41:27;95571.05;;;30.71;41.47
6851;BME280;3464;42.728;23.296;2023-08-21T02:43:54;95570.39;;;30.82;41.16
6851;BME280;3464;42.728;23.296;2023-08-21T02:46:22;95568.86;;;30.79;41.15
6851;BME280;3464;42.728;23.296;2023-08-21T02:48:50;95562.43;;;30.78;41.15
6851;BME280;3464;42.728;23.296;2023-08-21T02:51:17;95569.89;;;30.63;41.29
6851;BME280;3464;42.728;23.296;2023-08-21T02:53:46;95570.25;;;30.57;41.35
6851;BME280;3464;42.728;23.296;2023-08-21T02:56:14;95570.05;;;30.67;41.17
6851;BME280;3464;42.728;23.296;2023-08-21T02:58:43;95568.27;;;30.61;41.24
6851;BME280;3464;42.728;23.296;2023-08-21T03:01:10;95574.63;;;30.56;41.27
6851;BME280;3464;42.728;23.296;2023-08-21T03:03:39;95569.14;;;30.61;41.26
6851;BME280;3464;42.728;23.296;2023-08-21T03:06:07;95571.81;;;30.47;41.55
6851;BME280;3464;42.728;23.296;2023-08-21T03:08:34;95581.13;;;30.50;41.45
6851;BME280;3464;42.728;23.296;2023-08-21T03:11:01;95577.44;;;30.80;40.82
6851;BME280;3464;42.728;23.296;2023-08-21T03:13:29;95581.55;;;30.70;40.92
6851;BME280;3464;42.728;23.296;2023-08-21T03:15:58;95579.69;;;30.79;40.85
6851;BME280;3464;42.728;23.296;2023-08-21T03:18:30;95586.03;;;30.67;40.98
6851;BME280;3464;42.728;23.296;2023-08-21T03:20:59;95582.48;;;30.69;41.03
6851;BME280;3464;42.728;23.296;2023-08-21T03:23:27;95588.01;;;30.70;40.91
6851;BME280;3464;42.728;23.296;2023-08-21T03:25:56;95596.27;;;30.70;40.97
6851;BME280;3464;42.728;23.296;2023-08-21T03:28:24;95596.49;;;30.60;41.09
6851;BME280;3464;42.728;23.296;2023-08-21T03:30:52;95592.23;;;30.59;41.20
6851;BME280;3464;42.728;23.296;2023-08-21T03:33:23;95595.94;;;30.49;41.38
6851;BME280;3464;42.728;23.296;2023-08-21T03:35:53;95593.11;;;30.45;41.41
6851;BME280;3464;42.728;23.296;2023-08-21T03:38:20;95593.11;;;30.72;41.00
6851;BME280;3464;42.728;23.296;2023-08-21T03:40:51;95591.33;;;30.46;41.48
6851;BME280;3464;42.728;23.296;2023-08-21T03:43:20;95593.41;;;30.60;41.31
6851;BME280;3464;42.728;23.296;2023-08-21T03:45:48;95585.48;;;30.89;40.91
6851;BME280;3464;42.728;23.296;2023-08-21T03:48:17;95591.80;;;30.99;40.68
6851;BME280;3464;42.728;23.296;2023-08-21T03:50:44;95585.87;;;30.70;40.92
6851;BME280;3464;42.728;23.296;2023-08-21T03:53:12;95591.62;;;30.62;41.01
6851;BME280;3464;42.728;23.296;2023-08-21T03:55:41;95592.91;;;31.14;40.56
6851;BME280;3464;42.728;23.296;2023-08-21T03:58:10;95595.09;;;31.27;40.15
6851;BME280;3464;42.728;23.296;2023-08-21T04:00:39;95597.23;;;31.46;39.80
6851;BME280;3464;42.728;23.296;2023-08-21T04:03:08;95593.58;;;31.30;40.21
6851;BME280;3464;42.728;23.296;2023-08-21T04:05:38;95593.26;;;31.79;39.54
6851;BME280;3464;42.728;23.296;2023-08-21T04:08:08;95604.41;;;31.74;39.48
6851;BME280;3464;42.728;23.296;2023-08-21T04:10:34;95597.44;;;31.81;39.32
6851;BME280;3464;42.728;23.296;2023-08-21T04:13:01;95606.53;;;32.24;38.82
6851;BME280;3464;42.728;23.296;2023-08-21T04:15:27;95608.34;;;32.77;38.22
6851;BME280;3464;42.728;23.296;2023-08-21T04:17:55;95610.63;;;33.33;37.23
6851;BME280;3464;42.728;23.296;2023-08-21T04:20:28;95609.77;;;33.96;36.33
6851;BME280;3464;42.728;23.296;2023-08-21T04:22:55;95607.38;;;34.58;35.62
6851;BME280;3464;42.728;23.296;2023-08-21T04:25:23;95607.05;;;34.89;34.67
6851;BME280;3464;42.728;23.296;2023-08-21T04:27:52;95608.94;;;35.50;34.07
6851;BME280;3464;42.728;23.296;2023-08-21T04:30:24;95602.42;;;36.15;33.28
6851;BME280;3464;42.728;23.296;2023-08-21T04:32:52;95601.76;;;36.67;32.19
6851;BME280;3464;42.728;23.296;2023-08-21T04:35:20;95607.59;;;37.13;31.64
6851;BME280;3464;42.728;23.296;2023-08-21T04:37:48;95613.98;;;37.25;31.47
6851;BME280;3464;42.728;23.296;2023-08-21T04:40:17;95612.53;;;37.73;30.86
6851;BME280;3464;42.728;23.296;2023-08-21T04:42:49;95613.03;;;37.91;30.42
6851;BME280;3464;42.728;23.296;2023-08-21T04:45:19;95617.73;;;38.47;29.74
6851;BME280;3464;42.728;23.296;2023-08-21T04:47:46;95614.85;;;39.04;28.89
6851;BME280;3464;42.728;23.296;2023-08-21T04:50:14;95622.59;;;39.96;28.05
6851;BME280;3464;42.728;23.296;2023-08-21T04:52:42;95617.44;;;39.91;28.12
6851;BME280;3464;42.728;23.296;2023-08-21T04:55:10;95615.88;;;39.28;28.41
6851;BME280;3464;42.728;23.296;2023-08-21T04:57:38;95626.12;;;39.83;27.89
6851;BME280;3464;42.728;23.296;2023-08-21T05:00:06;95627.23;;;40.53;27.31
6851;BME280;3464;42.728;23.296;2023-08-21T05:02:34;95631.51;;;40.50;27.31
6851;BME280;3464;42.728;23.296;2023-08-21T05:05:04;95631.59;;;41.55;26.36
6851;BME280;3464;42.728;23.296;2023-08-21T05:07:35;95634.72;;;42.50;25.37
6851;BME280;3464;42.728;23.296;2023-08-21T05:10:04;95632.23;;;42.25;25.35
6851;BME280;3464;42.728;23.296;2023-08-21T05:12:31;95643.13;;;41.95;25.44
6851;BME280;3464;42.728;23.296;2023-08-21T05:15:00;95640.66;;;41.81;25.69
6851;BME280;3464;42.728;23.296;2023-08-21T05:17:28;95640.58;;;41.58;25.88
6851;BME280;3464;42.728;23.296;2023-08-21T05:19:58;95644.42;;;42.96;24.75
6851;BME280;3464;42.728;23.296;2023-08-21T05:22:26;95637.84;;;44.01;23.87
6851;BME280;3464;42.728;23.296;2023-08-21T05:24:54;95639.16;;;45.06;23.04
6851;BME280;3464;42.728;23.296;2023-08-21T05:27:21;95645.27;;;44.12;23.52
6851;BME280;3464;42.728;23.296;2023-08-21T05:29:48;95647.30;;;44.76;22.89
6851;BME280;3464;42.728;23.296;2023-08-21T05:32:17;95642.95;;;44.82;22.88
6851;BME280;3464;42.728;23.296;2023-08-21T05:34:47;95635.45;;;44.96;22.88
6851;BME280;3464;42.728;23.296;2023-08-21T05:37:15;95637.62;;;43.76;23.89
6851;BME280;3464;42.728;23.296;2023-08-21T05:39:41;95636.78;;;45.42;22.34
6851;BME280;3464;42.728;23.296;2023-08-21T05:42:09;95628.73;;;45.71;22.09
6851;BME280;3464;42.728;23.296;2023-08-21T05:44:37;95630.61;;;45.63;22.05
6851;BME280;3464;42.728;23.296;2023-08-21T05:47:06;95632.48;;;47.22;20.94
6851;BME280;3464;42.728;23.296;2023-08-21T05:49:36;95631.20;;;47.78;20.69
6851;BME280;3464;42.728;23.296;2023-08-21T05:52:05;95629.96;;;49.30;19.51
6851;BME280;3464;42.728;23.296;2023-08-21T05:54:36;95634.64;;;49.50;19.40
6851;BME280;3464;42.728;23.296;2023-08-21T05:57:06;95634.55;;;49.79;19.06
6851;BME280;3464;42.728;23.296;2023-08-21T05:59:34;95628.41;;;49.25;19.37
6851;BME280;3464;42.728;23.296;2023-08-21T06:02:01;95632.67;;;49.02;19.65
6851;BME280;3464;42.728;23.296;2023-08-21T06:04:28;95635.69;;;49.77;18.94
6851;BME280;3464;42.728;23.296;2023-08-21T06:06:58;95632.75;;;49.73;19.05
6851;BME280;3464;42.728;23.296;2023-08-21T06:09:26;95630.74;;;50.14;18.95
6851;BME280;3464;42.728;23.296;2023-08-21T06:11:54;95629.02;;;49.86;19.02
6851;BME280;3464;42.728;23.296;2023-08-21T06:14:22;95634.37;;;50.32;18.78
6851;BME280;3464;42.728;23.296;2023-08-21T06:16:55;95627.95;;;50.24;18.65
6851;BME280;3464;42.728;23.296;2023-08-21T06:19:23;95627.05;;;51.85;17.68
6851;BME280;3464;42.728;23.296;2023-08-21T06:21:52;95631.95;;;49.94;18.58
6851;BME280;3464;42.728;23.296;2023-08-21T06:24:21;95632.52;;;49.96;18.94
6851;BME280;3464;42.728;23.296;2023-08-21T06:26:53;95633.95;;;50.11;18.85
6851;BME280;3464;42.728;23.296;2023-08-21T06:29:22;95637.41;;;51.84;17.72
6851;BME280;3464;42.728;23.296;2023-08-21T06:31:50;95644.31;;;50.92;18.03
6851;BME280;3464;42.728;23.296;2023-08-21T06:34:20;95641.92;;;52.16;17.43
6851;BME280;3464;42.728;23.296;2023-08-21T06:36:49;95641.60;;;51.39;18.04
6851;BME280;3464;42.728;23.296;2023-08-21T06:39:17;95640.81;;;52.09;17.67
6851;BME280;3464;42.728;23.296;2023-08-21T06:41:44;95642.36;;;52.71;17.12
6851;BME280;3464;42.728;23.296;2023-08-21T06:44:12;95646.84;;;53.05;16.94
6851;BME280;3464;42.728;23.296;2023-08-21T06:46:39;95642.94;;;52.55;17.20
6851;BME280;3464;42.728;23.296;2023-08-21T06:49:07;95641.39;;;53.02;17.06
6851;BME280;3464;42.728;23.296;2023-08-21T06:51:34;95643.66;;;52.82;17.01
6851;BME280;3464;42.728;23.296;2023-08-21T06:54:01;95646.20;;;53.42;16.76
6851;BME280;3464;42.728;23.296;2023-08-21T06:56:30;95643.63;;;53.64;16.44
6851;BME280;3464;42.728;23.296;2023-08-21T06:58:57;95646.77;;;52.45;17.30
6851;BME280;3464;42.728;23.296;2023-08-21T07:01:24;95641.85;;;54.01;16.38
6851;BME280;3464;42.728;23.296;2023-08-21T07:03:51;95646.80;;;54.46;16.15
6851;BME280;3464;42.728;23.296;2023-08-21T07:06:23;95638.20;;;53.70;16.61
6851;BME280;3464;42.728;23.296;2023-08-21T07:08:49;95638.91;;;54.69;16.07
6851;BME280;3464;42.728;23.296;2023-08-21T07:11:17;95636.77;;;54.90;15.94
6851;BME280;3464;42.728;23.296;2023-08-21T07:13:44;95637.11;;;55.74;15.47
6851;BME280;3464;42.728;23.296;2023-08-21T07:16:11;95633.22;;;54.87;15.81
6851;BME280;3464;42.728;23.296;2023-08-21T07:18:38;95628.90;;;54.86;15.87
6851;BME280;3464;42.728;23.296;2023-08-21T07:21:04;95635.11;;;55.22;15.78
6851;BME280;3464;42.728;23.296;2023-08-21T07:23:31;95626.34;;;55.23;15.75
6851;BME280;3464;42.728;23.296;2023-08-21T07:25:58;95634.16;;;54.87;15.74
6851;BME280;3464;42.728;23.296;2023-08-21T07:28:26;95629.45;;;54.01;16.39
6851;BME280;3464;42.728;23.296;2023-08-21T07:30:57;95625.08;;;54.34;16.01
6851;BME280;3464;42.728;23.296;2023-08-21T07:33:24;95624.56;;;54.66;16.03
6851;BME280;3464;42.728;23.296;2023-08-21T07:36:00;95628.02;;;54.49;16.05
6851;BME280;3464;42.728;23.296;2023-08-21T07:38:30;95625.59;;;55.88;15.45
6851;BME280;3464;42.728;23.296;2023-08-21T07:41:10;95628.22;;;54.85;15.91
6851;BME280;3464;42.728;23.296;2023-08-21T07:43:40;95620.33;;;51.79;17.86
6851;BME280;3464;42.728;23.296;2023-08-21T07:46:12;95618.34;;;49.83;19.23
6851;BME280;3464;42.728;23.296;2023-08-21T07:48:41;95617.64;;;48.02;20.12
6851;BME280;3464;42.728;23.296;2023-08-21T07:51:12;95619.44;;;47.20;20.53
6851;BME280;3464;42.728;23.296;2023-08-21T07:53:40;95612.54;;;45.90;21.77
6851;BME280;3464;42.728;23.296;2023-08-21T07:56:07;95614.98;;;44.93;22.34
6851;BME280;3464;42.728;23.296;2023-08-21T07:58:34;95608.42;;;44.35;22.99
6851;BME280;3464;42.728;23.296;2023-08-21T08:01:15;95609.72;;;44.46;23.39
6851;BME280;3464;42.728;23.296;2023-08-21T08:03:47;95604.79;;;44.79;22.74
6851;BME280;3464;42.728;23.296;2023-08-21T08:06:13;95611.90;;;43.92;23.52
6851;BME280;3464;42.728;23.296;2023-08-21T08:08:45;95599.87;;;44.29;23.39
6851;BME280;3464;42.728;23.296;2023-08-21T08:11:13;95598.52;;;44.33;23.48
6851;BME280;3464;42.728;23.296;2023-08-21T08:13:41;95593.09;;;44.59;23.39
6851;BME280;3464;42.728;23.296;2023-08-21T08:16:08;95597.15;;;44.04;23.93
6851;BME280;3464;42.728;23.296;2023-08-21T08:18:36;95589.42;;;44.49;23.61
6851;BME280;3464;42.728;23.296;2023-08-21T08:21:04;95593.45;;;43.95;23.88
6851;BME280;3464;42.728;23.296;2023-08-21T08:23:37;95594.78;;;43.61;24.22
6851;BME280;3464;42.728;23.296;2023-08-21T08:26:06;95585.67;;;44.08;23.82
6851;BME280;3464;42.728;23.296;2023-08-21T08:28:37;95589.01;;;43.65;23.79
6851;BME280;3464;42.728;23.296;2023-08-21T08:31:07;95590.42;;;43.35;24.37
6851;BME280;3464;42.728;23.296;2023-08-21T08:33:34;95589.97;;;43.68;24.30
6851;BME280;3464;42.728;23.296;2023-08-21T08:36:06;95584.31;;;43.23;24.55
6851;BME280;3464;42.728;23.296;2023-08-21T08:38:36;95587.45;;;42.11;25.44
6851;BME280;3464;42.728;23.296;2023-08-21T08:47:41;95564.75;;;43.24;24.75
6851;BME280;3464;42.728;23.296;2023-08-21T08:50:16;95567.05;;;43.00;25.03
6851;BME280;3464;42.728;23.296;2023-08-21T08:52:43;95566.27;;;43.11;25.17
6851;BME280;3464;42.728;23.296;2023-08-21T08:55:10;95569.97;;;41.19;26.07
6851;BME280;3464;42.728;23.296;2023-08-21T08:57:40;95568.59;;;40.67;26.56
6851;BME280;3464;42.728;23.296;2023-08-21T09:00:09;95559.48;;;41.22;26.53
6851;BME280;3464;42.728;23.296;2023-08-21T09:02:37;95561.43;;;41.72;25.40
6851;BME280;3464;42.728;23.296;2023-08-21T09:05:05;95563.67;;;41.60;25.55
6851;BME280;3464;42.728;23.296;2023-08-21T09:07:32;95564.12;;;41.12;26.62
6851;BME280;3464;42.728;23.296;2023-08-21T09:09:59;95554.23;;;40.93;26.05
6851;BME280;3464;42.728;23.296;2023-08-21T09:12:27;95561.84;;;40.84;26.25
6851;BME280;3464;42.728;23.296;2023-08-21T09:14:54;95563.84;;;41.50;25.66
6851;BME280;3464;42.728;23.296;2023-08-21T09:17:22;95555.77;;;40.35;26.69
6851;BME280;3464;42.728;23.296;2023-08-21T09:19:53;95556.11;;;40.05;26.81
6851;BME280;3464;42.728;23.296;2023-08-21T09:22:22;95555.13;;;40.73;27.33
6851;BME280;3464;42.728;23.296;2023-08-21T09:25:02;95547.65;;;40.81;25.85
6851;BME280;3464;42.728;23.296;2023-08-21T09:27:34;95558.03;;;40.50;25.92
6851;BME280;3464;42.728;23.296;2023-08-21T09:30:03;95549.84;;;39.43;26.64
6851;BME280;3464;42.728;23.296;2023-08-21T09:32:30;95542.06;;;40.14;27.13
6851;BME280;3464;42.728;23.296;2023-08-21T09:34:57;95546.47;;;40.43;25.64
6851;BME280;3464;42.728;23.296;2023-08-21T09:37:27;95542.63;;;40.25;25.40
6851;BME280;3464;42.728;23.296;2023-08-21T09:39:50;95537.98;;;40.52;26.80
6851;BME280;3464;42.728;23.296;2023-08-21T09:42:17;95540.34;;;39.41;26.81
6851;BME280;3464;42.728;23.296;2023-08-21T09:44:44;95535.84;;;40.88;25.54
6851;BME280;3464;42.728;23.296;2023-08-21T09:47:10;95544.67;;;38.37;27.25
6851;BME280;3464;42.728;23.296;2023-08-21T09:49:37;95538.26;;;39.66;25.95
6851;BME280;3464;42.728;23.296;2023-08-21T09:52:06;95529.64;;;40.36;25.37
6851;BME280;3464;42.728;23.296;2023-08-21T09:54:34;95523.05;;;40.48;25.04
6851;BME280;3464;42.728;23.296;2023-08-21T09:57:02;95526.48;;;39.18;26.31
6851;BME280;3464;42.728;23.296;2023-08-21T09:59:29;95523.78;;;40.45;24.94
6851;BME280;3464;42.728;23.296;2023-08-21T10:01:55;95519.98;;;40.40;25.07
6851;BME280;3464;42.728;23.296;2023-08-21T10:04:23;95520.31;;;38.39;27.35
6851;BME280;3464;42.728;23.296;2023-08-21T10:06:51;95518.06;;;39.36;26.56
6851;BME280;3464;42.728;23.296;2023-08-21T10:09:17;95510.85;;;41.16;25.51
6851;BME280;3464;42.728;23.296;2023-08-21T10:11:44;95521.88;;;39.20;26.75
6851;BME280;3464;42.728;23.296;2023-08-21T10:14:11;95513.41;;;38.73;26.90
6851;BME280;3464;42.728;23.296;2023-08-21T10:16:37;95511.80;;;39.46;26.16
6851;BME280;3464;42.728;23.296;2023-08-21T10:19:04;95509.03;;;40.84;25.68
6851;BME280;3464;42.728;23.296;2023-08-21T10:21:35;95505.41;;;41.25;24.72
6851;BME280;3464;42.728;23.296;2023-08-21T10:24:01;95495.09;;;42.13;23.82
6851;BME280;3464;42.728;23.296;2023-08-21T10:26:27;95501.09;;;38.52;26.90
6851;BME280;3464;42.728;23.296;2023-08-21T10:28:58;95489.28;;;39.30;26.16
6851;BME280;3464;42.728;23.296;2023-08-21T10:31:34;95489.70;;;40.35;25.45
6851;BME280;3464;42.728;23.296;2023-08-21T10:34:03;95493.69;;;41.12;24.54
6851;BME280;3464;42.728;23.296;2023-08-21T10:39:23;95482.70;;;41.63;24.19
6851;BME280;3464;42.728;23.296;2023-08-21T10:41:55;95481.24;;;40.23;25.09
6851;BME280;3464;42.728;23.296;2023-08-21T10:47:40;95473.06;;;40.46;24.30
6851;BME280;3464;42.728;23.296;2023-08-21T10:49:51;95472.09;;;41.98;23.33
6851;BME280;3464;42.728;23.296;2023-08-21T10:52:20;95462.02;;;40.47;24.20
6851;BME280;3464;42.728;23.296;2023-08-21T10:54:46;95459.41;;;42.20;22.91
6851;BME280;3464;42.728;23.296;2023-08-21T10:57:11;95466.99;;;42.23;22.85
6851;BME280;3464;42.728;23.296;2023-08-21T10:59:38;95455.23;;;39.66;24.53
6851;BME280;3464;42.728;23.296;2023-08-21T11:02:05;95460.05;;;41.05;23.26
6851;BME280;3464;42.728;23.296;2023-08-21T11:04:39;95465.06;;;39.85;24.09
6851;BME280;3464;42.728;23.296;2023-08-21T11:07:07;95456.44;;;40.86;23.42
6851;BME280;3464;42.728;23.296;2023-08-21T11:09:35;95459.73;;;39.90;24.50
6851;BME280;3464;42.728;23.296;2023-08-21T11:12:04;95455.37;;;40.75;23.97
6851;BME280;3464;42.728;23.296;2023-08-21T11:14:27;95445.20;;;40.19;23.91
6851;BME280;3464;42.728;23.296;2023-08-21T11:16:53;95448.94;;;40.74;23.64
6851;BME280;3464;42.728;23.296;2023-08-21T11:19:21;95449.42;;;40.21;23.99
6851;BME280;3464;42.728;23.296;2023-08-21T11:21:51;95448.79;;;39.18;24.65
6851;BME280;3464;42.728;23.296;2023-08-21T11:24:17;95454.09;;;40.27;23.45
6851;BME280;3464;42.728;23.296;2023-08-21T11:26:53;95444.31;;;41.00;22.99
6851;BME280;3464;42.728;23.296;2023-08-21T11:29:42;95446.38;;;40.89;22.53
6851;BME280;3464;42.728;23.296;2023-08-21T11:32:08;95440.27;;;40.89;22.69
6851;BME280;3464;42.728;23.296;2023-08-21T11:34:36;95449.78;;;39.59;23.84
6851;BME280;3464;42.728;23.296;2023-08-21T11:37:06;95429.18;;;40.29;23.52
6851;BME280;3464;42.728;23.296;2023-08-21T11:39:41;95447.36;;;39.91;23.72
6851;BME280;3464;42.728;23.296;2023-08-21T11:42:10;95429.59;;;40.54;23.30
6851;BME280;3464;42.728;23.296;2023-08-21T11:44:42;95440.28;;;40.81;23.10
6851;BME280;3464;42.728;23.296;2023-08-21T11:47:09;95436.31;;;40.93;22.81
6851;BME280;3464;42.728;23.296;2023-08-21T11:49:41;95435.66;;;41.15;22.52
6851;BME280;3464;42.728;23.296;2023-08-21T11:52:08;95437.20;;;41.21;22.33
6851;BME280;3464;42.728;23.296;2023-08-21T11:54:34;95431.59;;;40.36;23.41
6851;BME280;3464;42.728;23.296;2023-08-21T11:57:08;95425.05;;;41.23;22.80
6851;BME280;3464;42.728;23.296;2023-08-21T11:59:40;95426.05;;;40.42;23.70
6851;BME280;3464;42.728;23.296;2023-08-21T12:02:14;95423.39;;;40.26;23.70
6851;BME280;3464;42.728;23.296;2023-08-21T12:04:41;95421.98;;;41.31;22.85
6851;BME280;3464;42.728;23.296;2023-08-21T12:07:11;95415.42;;;40.59;23.36
6851;BME280;3464;42.728;23.296;2023-08-21T12:09:38;95416.45;;;40.21;22.92
6851;BME280;3464;42.728;23.296;2023-08-21T12:12:06;95417.19;;;39.18;23.63
6851;BME280;3464;42.728;23.296;2023-08-21T12:14:38;95418.13;;;40.58;22.82
6851;BME280;3464;42.728;23.296;2023-08-21T12:17:08;95411.56;;;40.90;22.99
6851;BME280;3464;42.728;23.296;2023-08-21T12:19:35;95414.70;;;41.29;22.92
6851;BME280;3464;42.728;23.296;2023-08-21T12:22:02;95416.95;;;40.24;23.39
6851;BME280;3464;42.728;23.296;2023-08-21T12:24:29;95405.36;;;40.01;23.52
6851;BME280;3464;42.728;23.296;2023-08-21T12:26:56;95422.82;;;39.14;24.33
6851;BME280;3464;42.728;23.296;2023-08-21T12:29:23;95402.50;;;40.03;24.07
6851;BME280;3464;42.728;23.296;2023-08-21T12:31:49;95410.86;;;39.83;24.25
6851;BME280;3464;42.728;23.296;2023-08-21T12:34:16;95410.13;;;40.31;23.47
6851;BME280;3464;42.728;23.296;2023-08-21T12:36:43;95400.52;;;40.18;23.92
6851;BME280;3464;42.728;23.296;2023-08-21T12:39:10;95395.28;;;41.64;22.53
6851;BME280;3464;42.728;23.296;2023-08-21T12:41:38;95399.12;;;40.75;23.12
6851;BME280;3464;42.728;23.296;2023-08-21T12:44:04;95400.00;;;40.31;23.15
6851;BME280;3464;42.728;23.296;2023-08-21T12:46:31;95392.27;;;40.73;22.86
6851;BME280;3464;42.728;23.296;2023-08-21T12:48:58;95389.69;;;40.37;23.47
6851;BME280;3464;42.728;23.296;2023-08-21T12:51:24;95387.24;;;40.18;23.94
6851;BME280;3464;42.728;23.296;2023-08-21T12:53:54;95385.95;;;41.07;23.08
6851;BME280;3464;42.728;23.296;2023-08-21T12:56:24;95381.77;;;40.93;23.43
6851;BME280;3464;42.728;23.296;2023-08-21T12:58:52;95395.81;;;40.04;24.50
6851;BME280;3464;42.728;23.296;2023-08-21T13:01:22;95377.41;;;39.99;23.78
6851;BME280;3464;42.728;23.296;2023-08-21T13:03:56;95381.88;;;39.78;24.22
6851;BME280;3464;42.728;23.296;2023-08-21T13:06:28;95380.11;;;39.70;24.40
6851;BME280;3464;42.728;23.296;2023-08-21T13:08:55;95373.63;;;39.44;24.50
6851;BME280;3464;42.728;23.296;2023-08-21T13:11:24;95368.69;;;40.07;24.07
6851;BME280;3464;42.728;23.296;2023-08-21T13:16:47;95364.90;;;39.35;24.34
6851;BME280;3464;42.728;23.296;2023-08-21T13:19:13;95368.48;;;40.33;23.63
6851;BME280;3464;42.728;23.296;2023-08-21T13:21:42;95358.02;;;40.73;23.58
6851;BME280;3464;42.728;23.296;2023-08-21T13:24:09;95356.09;;;40.86;23.13
6851;BME280;3464;42.728;23.296;2023-08-21T13:29:24;95350.27;;;40.47;23.16
6851;BME280;3464;42.728;23.296;2023-08-21T13:31:53;95359.24;;;40.61;23.55
6851;BME280;3464;42.728;23.296;2023-08-21T13:34:20;95348.66;;;39.97;23.93
6851;BME280;3464;42.728;23.296;2023-08-21T13:36:46;95342.67;;;38.96;24.52